Time;durP1;ratioP1;P1;durP2;ratioP2;P2;SDS_P1;SDS_P2;PMS_P1;PMS_P2;Temp;Humidity;BMP_temperature;BMP_pressure;BME280_temperature;BME280_humidity;BME280_pressure;Samples;Min_cycle;Max_cycle;Signal;HPM_P1;HPM_P2
2022/06/19 00:00:31;;;;;;;5.37;4.87;;;;;;;;;;5063437;28;20539;-51
2022/06/19 00:02:57;;;;;;;5.53;5.00;;;;;;;;;;5061668;28;20230;-51
2022/06/19 00:05:23;;;;;;;5.57;5.17;;;;;;;;;;5063104;28;20219;-51
2022/06/19 00:07:49;;;;;;;5.97;5.37;;;;;;;;;;5065885;28;20198;-52
2022/06/19 00:10:15;;;;;;;5.97;5.27;;;;;;;;;;5069131;28;20266;-52
2022/06/19 00:12:41;;;;;;;5.67;5.13;;;;;;;;;;5063370;28;20303;-51
2022/06/19 00:15:08;;;;;;;6.53;5.90;;;;;;;;;;5042105;28;20178;-51
2022/06/19 00:17:34;;;;;;;7.33;5.93;;;;;;;;;;5048020;28;20231;-51
2022/06/19 00:20:01;;;;;;;6.30;5.70;;;;;;;;;;5064145;28;20550;-52
2022/06/19 00:22:27;;;;;;;6.00;5.40;;;;;;;;;;5046702;28;20183;-52
2022/06/19 00:24:54;;;;;;;5.27;4.87;;;;;;;;;;5045641;28;20298;-52
2022/06/19 00:27:20;;;;;;;5.67;5.27;;;;;;;;;;5055122;28;20179;-53
2022/06/19 00:29:47;;;;;;;5.70;5.20;;;;;;;;;;5029915;28;20196;-52
2022/06/19 00:32:13;;;;;;;4.77;4.37;;;;;;;;;;5045372;28;20202;-52
2022/06/19 00:34:40;;;;;;;5.17;4.73;;;;;;;;;;5063377;28;20185;-52
2022/06/19 00:37:06;;;;;;;5.00;4.53;;;;;;;;;;5043455;28;20254;-52
2022/06/19 00:39:39;;;;;;;4.87;4.50;;;;;;;;;;5063367;28;20186;-51
2022/06/19 00:42:05;;;;;;;4.90;4.50;;;;;;;;;;5047190;28;20181;-52
2022/06/19 00:44:34;;;;;;;5.43;4.63;;;;;;;;;;5062142;28;20197;-52
2022/06/19 00:47:21;;;;;;;5.37;4.13;;;;;;;;;;5053100;28;20198;-52
2022/06/19 00:50:19;;;;;;;4.93;4.50;;;;;;;;;;5052246;28;20192;-52
2022/06/19 00:52:45;;;;;;;6.63;4.27;;;;;;;;;;5039056;28;20207;-52
2022/06/19 00:55:14;;;;;;;4.73;4.23;;;;;;;;;;5044670;28;20718;-52
2022/06/19 00:57:45;;;;;;;4.53;4.13;;;;;;;;;;5048707;28;20211;-52
2022/06/19 01:00:14;;;;;;;6.27;4.67;;;;;;;;;;5068978;28;20190;-52
2022/06/19 01:02:41;;;;;;;4.90;4.50;;;;;;;;;;5055356;28;20551;-51
2022/06/19 01:05:10;;;;;;;4.53;4.13;;;;;;;;;;5070314;28;20253;-51
2022/06/19 01:07:36;;;;;;;4.47;4.17;;;;;;;;;;5084464;28;20658;-51
2022/06/19 01:10:02;;;;;;;5.80;4.57;;;;;;;;;;5082383;28;20179;-53
2022/06/19 01:12:31;;;;;;;5.43;4.93;;;;;;;;;;5084627;28;20276;-52
2022/06/19 01:15:08;;;;;;;4.93;4.43;;;;;;;;;;5067880;28;20486;-52
2022/06/19 01:17:35;;;;;;;4.70;4.20;;;;;;;;;;5059984;28;20207;-52
2022/06/19 01:20:07;;;;;;;6.17;4.10;;;;;;;;;;5068321;28;20672;-52
2022/06/19 01:22:45;;;;;;;4.63;4.33;;;;;;;;;;5067369;28;20709;-52
2022/06/19 01:25:14;;;;;;;4.73;4.33;;;;;;;;;;5078556;28;20503;-52
2022/06/19 01:30:33;;;;;;;4.50;4.20;;;;;;;;;;5085091;28;20294;-52
2022/06/19 01:33:00;;;;;;;4.43;4.13;;;;;;;;;;5064808;28;20703;-52
2022/06/19 01:35:29;;;;;;;4.33;3.97;;;;;;;;;;5067561;28;20338;-53
2022/06/19 01:37:56;;;;;;;3.90;3.60;;;;;;;;;;5064736;28;20569;-52
2022/06/19 01:40:24;;;;;;;4.50;4.10;;;;;;;;;;5089468;28;20191;-52
2022/06/19 01:42:51;;;;;;;4.53;4.20;;;;;;;;;;5047932;28;20589;-56
2022/06/19 01:45:27;;;;;;;5.13;3.87;;;;;;;;;;5067939;28;20190;-53
2022/06/19 01:47:53;;;;;;;4.07;3.87;;;;;;;;;;5061810;28;20240;-52
2022/06/19 01:50:24;;;;;;;4.40;4.00;;;;;;;;;;5084725;28;20213;-52
2022/06/19 01:52:53;;;;;;;4.67;4.23;;;;;;;;;;5081436;28;20198;-52
2022/06/19 01:55:19;;;;;;;6.90;4.30;;;;;;;;;;5083101;28;20173;-52
2022/06/19 01:57:49;;;;;;;5.13;4.00;;;;;;;;;;5083230;28;20351;-52
2022/06/19 02:00:17;;;;;;;4.57;4.17;;;;;;;;;;5050239;28;20628;-52
2022/06/19 02:02:46;;;;;;;4.43;4.13;;;;;;;;;;5065417;28;20193;-52
2022/06/19 02:05:12;;;;;;;4.22;3.83;;;;;;;;;;5058298;28;20864;-51
2022/06/19 02:07:39;;;;;;;4.50;4.10;;;;;;;;;;5064917;28;20668;-52
2022/06/19 02:10:05;;;;;;;3.90;3.60;;;;;;;;;;5087951;28;20540;-51
2022/06/19 02:12:32;;;;;;;4.27;3.80;;;;;;;;;;5082857;28;20218;-52
2022/06/19 02:15:01;;;;;;;4.27;3.87;;;;;;;;;;5081943;28;20257;-51
2022/06/19 02:17:35;;;;;;;4.70;4.33;;;;;;;;;;5065287;28;20601;-51
2022/06/19 02:20:03;;;;;;;4.37;4.07;;;;;;;;;;5085484;28;20515;-51
2022/06/19 02:22:29;;;;;;;4.10;3.80;;;;;;;;;;5065702;28;20190;-52
2022/06/19 02:24:55;;;;;;;4.77;3.97;;;;;;;;;;5064733;28;20177;-52
2022/06/19 02:27:25;;;;;;;3.87;3.50;;;;;;;;;;5064881;28;20554;-52
2022/06/19 02:29:51;;;;;;;3.90;3.60;;;;;;;;;;5064836;28;20182;-52
2022/06/19 02:32:21;;;;;;;3.80;3.40;;;;;;;;;;5085493;28;20248;-52
2022/06/19 02:34:48;;;;;;;4.63;4.07;;;;;;;;;;5067114;28;20236;-52
2022/06/19 02:37:21;;;;;;;3.80;3.50;;;;;;;;;;5081306;28;20266;-51
2022/06/19 02:39:54;;;;;;;4.53;3.63;;;;;;;;;;5081728;28;20708;-52
2022/06/19 02:42:22;;;;;;;4.20;3.63;;;;;;;;;;5067065;28;20647;-52
2022/06/19 02:45:01;;;;;;;4.10;3.80;;;;;;;;;;5083557;28;20167;-52
2022/06/19 02:47:28;;;;;;;3.43;3.20;;;;;;;;;;5068127;28;20669;-51
2022/06/19 02:49:54;;;;;;;3.87;3.40;;;;;;;;;;5085135;28;20534;-51
2022/06/19 02:52:21;;;;;;;3.97;3.67;;;;;;;;;;5083301;28;20313;-51
2022/06/19 02:54:47;;;;;;;3.67;3.47;;;;;;;;;;5085221;28;20175;-52
2022/06/19 02:57:14;;;;;;;4.83;3.43;;;;;;;;;;5078561;28;20173;-52
2022/06/19 02:59:41;;;;;;;4.30;3.30;;;;;;;;;;5066113;28;20234;-51
2022/06/19 03:02:08;;;;;;;4.10;3.80;;;;;;;;;;5082744;28;20295;-51
2022/06/19 03:04:35;;;;;;;3.67;3.27;;;;;;;;;;5082043;28;20193;-51
2022/06/19 03:07:01;;;;;;;3.30;3.00;;;;;;;;;;5075982;28;20331;-51
2022/06/19 03:09:28;;;;;;;4.47;2.97;;;;;;;;;;5064334;28;20223;-51
2022/06/19 03:11:54;;;;;;;3.70;3.40;;;;;;;;;;5082949;28;20239;-52
2022/06/19 03:14:20;;;;;;;4.23;3.73;;;;;;;;;;5080853;28;20210;-52
2022/06/19 03:16:46;;;;;;;12.77;12.07;;;;;;;;;;5091381;28;20714;-52
2022/06/19 03:19:13;;;;;;;3.60;3.30;;;;;;;;;;5087822;28;20295;-51
2022/06/19 03:21:39;;;;;;;3.43;3.13;;;;;;;;;;5083567;28;20570;-52
2022/06/19 03:24:06;;;;;;;3.30;3.00;;;;;;;;;;5077387;28;20219;-51
2022/06/19 03:26:32;;;;;;;3.13;2.93;;;;;;;;;;5078727;28;20198;-51
2022/06/19 03:28:58;;;;;;;3.17;2.87;;;;;;;;;;5063649;28;20212;-51
2022/06/19 03:31:26;;;;;;;3.60;3.30;;;;;;;;;;5065475;28;20247;-52
2022/06/19 03:33:53;;;;;;;5.00;2.70;;;;;;;;;;5058469;28;20229;-51
2022/06/19 03:36:20;;;;;;;3.33;3.03;;;;;;;;;;5064937;28;20657;-51
2022/06/19 03:38:49;;;;;;;3.37;2.97;;;;;;;;;;5079269;28;20582;-51
2022/06/19 03:41:15;;;;;;;3.70;3.37;;;;;;;;;;5066215;28;20296;-51
2022/06/19 03:43:42;;;;;;;2.77;2.47;;;;;;;;;;5082879;28;20584;-51
2022/06/19 03:46:14;;;;;;;4.20;3.07;;;;;;;;;;5064844;28;20896;-51
2022/06/19 03:48:41;;;;;;;5.53;2.60;;;;;;;;;;5048518;28;20184;-51
2022/06/19 03:51:08;;;;;;;3.80;2.97;;;;;;;;;;5066524;28;20229;-51
2022/06/19 03:53:35;;;;;;;3.10;2.63;;;;;;;;;;5045004;28;20569;-52
2022/06/19 03:56:01;;;;;;;3.10;2.70;;;;;;;;;;5049776;28;20264;-50
2022/06/19 03:58:45;;;;;;;3.97;2.70;;;;;;;;;;5081747;28;20588;-50
2022/06/19 04:01:12;;;;;;;5.47;5.03;;;;;;;;;;5085406;28;20262;-51
2022/06/19 04:03:46;;;;;;;3.80;2.67;;;;;;;;;;5082062;28;20354;-49
2022/06/19 04:06:13;;;;;;;4.13;2.90;;;;;;;;;;5082940;28;20211;-51
2022/06/19 04:08:40;;;;;;;3.67;2.80;;;;;;;;;;5080952;28;20191;-52
2022/06/19 04:11:07;;;;;;;4.07;2.70;;;;;;;;;;5081151;28;20188;-51
2022/06/19 04:13:34;;;;;;;4.73;2.63;;;;;;;;;;5065103;28;20212;-51
2022/06/19 04:16:01;;;;;;;6.20;2.80;;;;;;;;;;5064736;28;20185;-51
2022/06/19 04:18:29;;;;;;;6.13;2.57;;;;;;;;;;5062794;28;20192;-51
2022/06/19 04:20:56;;;;;;;5.70;3.23;;;;;;;;;;5087387;28;20189;-51
2022/06/19 04:23:26;;;;;;;6.00;3.33;;;;;;;;;;5082071;28;20627;-51
2022/06/19 04:25:52;;;;;;;5.03;2.77;;;;;;;;;;5089039;28;20759;-50
2022/06/19 04:28:22;;;;;;;8.03;3.20;;;;;;;;;;5083150;28;20925;-50
2022/06/19 04:30:50;;;;;;;7.00;3.10;;;;;;;;;;5065070;28;20325;-50
2022/06/19 04:33:20;;;;;;;7.03;5.50;;;;;;;;;;5067941;28;20246;-51
2022/06/19 04:35:47;;;;;;;5.80;3.00;;;;;;;;;;5084499;28;21765;-52
2022/06/19 04:38:14;;;;;;;7.13;3.10;;;;;;;;;;5082266;28;20264;-52
2022/06/19 04:40:40;;;;;;;7.33;3.60;;;;;;;;;;5087191;28;20264;-52
2022/06/19 04:43:07;;;;;;;6.60;3.00;;;;;;;;;;5088980;28;20260;-52
2022/06/19 04:45:34;;;;;;;7.27;3.07;;;;;;;;;;5088779;28;20221;-52
2022/06/19 04:48:00;;;;;;;6.43;3.60;;;;;;;;;;5088016;28;20223;-53
2022/06/19 04:50:27;;;;;;;4.10;2.70;;;;;;;;;;5088184;28;20604;-52
2022/06/19 04:52:54;;;;;;;6.07;3.03;;;;;;;;;;5081872;28;20216;-52
2022/06/19 04:55:21;;;;;;;4.90;2.83;;;;;;;;;;5080280;28;20182;-52
2022/06/19 04:57:50;;;;;;;6.83;3.13;;;;;;;;;;5058812;28;20525;-51
2022/06/19 05:00:19;;;;;;;7.27;4.13;;;;;;;;;;5056473;28;20202;-51
2022/06/19 05:02:48;;;;;;;10.47;3.63;;;;;;;;;;5072920;28;20199;-52
2022/06/19 05:05:16;;;;;;;5.30;2.97;;;;;;;;;;5066083;28;20183;-51
2022/06/19 05:07:49;;;;;;;6.97;3.50;;;;;;;;;;5062756;28;20192;-52
2022/06/19 05:10:15;;;;;;;4.57;2.93;;;;;;;;;;5081354;28;20184;-52
2022/06/19 05:12:42;;;;;;;6.20;3.60;;;;;;;;;;5085905;28;20204;-52
2022/06/19 05:15:10;;;;;;;6.83;3.10;;;;;;;;;;5064787;28;20633;-52
2022/06/19 05:17:36;;;;;;;5.10;3.23;;;;;;;;;;5068826;28;20180;-53
2022/06/19 05:20:03;;;;;;;5.67;2.77;;;;;;;;;;5091174;28;20184;-52
2022/06/19 05:22:31;;;;;;;5.53;2.70;;;;;;;;;;5067279;28;20730;-53
2022/06/19 05:25:00;;;;;;;5.83;3.00;;;;;;;;;;5069947;28;20505;-52
2022/06/19 05:27:29;;;;;;;6.27;2.83;;;;;;;;;;5067703;28;20199;-52
2022/06/19 05:29:55;;;;;;;6.80;3.30;;;;;;;;;;5058697;28;20194;-53
2022/06/19 05:32:26;;;;;;;7.10;3.37;;;;;;;;;;5070598;28;20531;-51
2022/06/19 05:34:53;;;;;;;5.20;2.83;;;;;;;;;;5079825;28;20175;-54
2022/06/19 05:37:19;;;;;;;7.10;3.13;;;;;;;;;;5070971;28;20168;-53
2022/06/19 05:39:45;;;;;;;7.17;3.33;;;;;;;;;;5061795;28;20834;-53
2022/06/19 05:42:14;;;;;;;5.13;2.70;;;;;;;;;;5066938;28;20180;-53
2022/06/19 05:44:41;;;;;;;6.50;3.20;;;;;;;;;;5064642;28;20287;-53
2022/06/19 05:47:07;;;;;;;5.27;2.70;;;;;;;;;;5069397;28;20176;-53
2022/06/19 05:49:34;;;;;;;5.70;3.17;;;;;;;;;;5086419;28;20187;-53
2022/06/19 05:52:01;;;;;;;5.40;2.80;;;;;;;;;;5087344;28;20393;-53
2022/06/19 05:54:28;;;;;;;6.20;3.00;;;;;;;;;;5086563;28;20195;-53
2022/06/19 05:56:55;;;;;;;5.27;2.90;;;;;;;;;;5085076;28;20533;-52
2022/06/19 05:59:22;;;;;;;4.90;2.70;;;;;;;;;;5067019;28;20470;-53
2022/06/19 06:01:49;;;;;;;6.27;3.57;;;;;;;;;;5068090;28;20240;-53
2022/06/19 06:04:15;;;;;;;6.37;3.10;;;;;;;;;;5066986;28;20185;-52
2022/06/19 06:06:45;;;;;;;5.37;3.67;;;;;;;;;;5050819;28;20726;-53
2022/06/19 06:09:13;;;;;;;4.83;2.97;;;;;;;;;;5041549;28;20631;-53
2022/06/19 06:11:39;;;;;;;3.70;2.70;;;;;;;;;;5046433;28;20195;-51
2022/06/19 06:14:05;;;;;;;6.47;2.97;;;;;;;;;;5065980;28;20204;-51
2022/06/19 06:16:32;;;;;;;7.60;3.13;;;;;;;;;;5063298;28;20177;-52
2022/06/19 06:18:58;;;;;;;4.83;3.33;;;;;;;;;;5066403;28;20584;-53
2022/06/19 06:21:25;;;;;;;6.90;3.30;;;;;;;;;;5044751;28;20688;-52
2022/06/19 06:23:52;;;;;;;5.57;3.30;;;;;;;;;;5047058;28;20189;-52
2022/06/19 06:26:23;;;;;;;10.47;3.63;;;;;;;;;;5044420;28;20409;-53
2022/06/19 06:28:50;;;;;;;5.47;2.90;;;;;;;;;;5059126;28;20188;-52
2022/06/19 06:31:17;;;;;;;5.10;2.40;;;;;;;;;;5047056;28;20280;-52
2022/06/19 06:33:44;;;;;;;3.60;2.70;;;;;;;;;;5061026;28;20197;-51
2022/06/19 06:36:11;;;;;;;6.67;3.40;;;;;;;;;;5047504;28;20243;-52
2022/06/19 06:38:37;;;;;;;4.87;2.57;;;;;;;;;;5061813;28;20185;-52
2022/06/19 06:41:08;;;;;;;5.13;2.80;;;;;;;;;;5062488;28;20181;-51
2022/06/19 06:43:44;;;;;;;4.30;2.50;;;;;;;;;;5057865;28;20511;-51
2022/06/19 06:46:19;;;;;;;7.67;3.60;;;;;;;;;;5060773;28;20240;-51
2022/06/19 06:48:46;;;;;;;5.40;2.87;;;;;;;;;;5056519;28;20327;-51
2022/06/19 06:51:13;;;;;;;4.83;2.83;;;;;;;;;;5064510;28;20312;-51
2022/06/19 06:53:40;;;;;;;6.93;3.60;;;;;;;;;;5063835;28;20211;-51
2022/06/19 06:56:07;;;;;;;5.77;2.97;;;;;;;;;;5053933;28;20209;-51
2022/06/19 06:58:34;;;;;;;4.97;3.00;;;;;;;;;;5037078;28;20195;-51
2022/06/19 07:01:13;;;;;;;5.70;2.83;;;;;;;;;;5045491;28;20177;-51
2022/06/19 07:03:39;;;;;;;7.20;3.17;;;;;;;;;;5065041;28;20180;-51
2022/06/19 07:06:05;;;;;;;5.57;3.10;;;;;;;;;;5048936;28;20220;-51
2022/06/19 07:08:32;;;;;;;4.77;2.90;;;;;;;;;;5064765;28;20188;-52
2022/06/19 07:10:58;;;;;;;7.03;3.50;;;;;;;;;;5079980;28;20184;-52
2022/06/19 07:13:24;;;;;;;7.53;2.83;;;;;;;;;;5088418;28;20678;-51
2022/06/19 07:15:51;;;;;;;5.50;2.90;;;;;;;;;;5065407;28;20250;-50
2022/06/19 07:18:18;;;;;;;5.03;3.10;;;;;;;;;;5080042;28;20360;-52
2022/06/19 07:20:45;;;;;;;5.23;3.27;;;;;;;;;;5092222;28;20172;-51
2022/06/19 07:23:11;;;;;;;6.13;3.40;;;;;;;;;;5072600;28;20183;-50
2022/06/19 07:25:41;;;;;;;5.30;3.27;;;;;;;;;;5076051;28;20770;-50
2022/06/19 07:28:07;;;;;;;5.53;3.30;;;;;;;;;;5060289;28;20192;-50
2022/06/19 07:30:34;;;;;;;4.83;2.90;;;;;;;;;;5075466;28;20180;-51
2022/06/19 07:33:03;;;;;;;9.63;3.73;;;;;;;;;;5076811;28;20213;-52
2022/06/19 07:35:29;;;;;;;4.80;3.33;;;;;;;;;;5082144;28;20176;-51
2022/06/19 07:37:55;;;;;;;5.40;3.00;;;;;;;;;;5073354;28;20530;-52
2022/06/19 07:40:23;;;;;;;8.17;3.50;;;;;;;;;;5061466;28;20552;-51
2022/06/19 07:42:49;;;;;;;4.83;3.30;;;;;;;;;;5064204;28;20198;-51
2022/06/19 07:45:16;;;;;;;9.70;3.30;;;;;;;;;;5078374;28;20183;-51
2022/06/19 07:50:28;;;;;;;3.67;2.60;;;;;;;;;;5084874;28;20260;-52
2022/06/19 07:52:55;;;;;;;9.60;3.40;;;;;;;;;;5079433;28;20866;-52
2022/06/19 07:55:26;;;;;;;5.10;3.30;;;;;;;;;;5074581;28;20661;-52
2022/06/19 07:57:53;;;;;;;9.27;3.80;;;;;;;;;;5051606;28;20280;-51
2022/06/19 08:00:27;;;;;;;6.43;3.07;;;;;;;;;;5064887;28;20208;-52
2022/06/19 08:02:54;;;;;;;6.43;3.23;;;;;;;;;;5074133;28;20183;-51
2022/06/19 08:05:21;;;;;;;6.97;3.47;;;;;;;;;;5055074;28;20557;-51
2022/06/19 08:07:50;;;;;;;6.57;3.23;;;;;;;;;;5061146;28;20230;-50
2022/06/19 08:10:36;;;;;;;8.50;4.17;;;;;;;;;;5063845;28;20180;-51
2022/06/19 08:13:03;;;;;;;10.17;4.10;;;;;;;;;;5049353;28;20207;-53
2022/06/19 08:15:30;;;;;;;6.40;3.57;;;;;;;;;;5081271;28;20618;-51
2022/06/19 08:17:57;;;;;;;6.23;3.20;;;;;;;;;;5081119;28;20579;-51
2022/06/19 08:20:23;;;;;;;7.93;3.63;;;;;;;;;;5084797;28;20314;-52
2022/06/19 08:22:50;;;;;;;9.87;3.63;;;;;;;;;;5084496;28;20183;-52
2022/06/19 08:25:17;;;;;;;6.27;3.03;;;;;;;;;;5084548;28;20180;-51
2022/06/19 08:27:47;;;;;;;9.23;3.80;;;;;;;;;;5062693;28;20380;-51
2022/06/19 08:30:15;;;;;;;6.17;3.20;;;;;;;;;;5081599;28;20621;-52
2022/06/19 08:32:41;;;;;;;6.43;3.67;;;;;;;;;;5086605;28;20204;-51
2022/06/19 08:35:07;;;;;;;6.40;3.87;;;;;;;;;;5082309;28;20185;-51
2022/06/19 08:37:35;;;;;;;5.53;3.10;;;;;;;;;;5082591;28;20263;-52
2022/06/19 08:40:02;;;;;;;4.87;3.13;;;;;;;;;;5085581;28;20556;-52
2022/06/19 08:42:35;;;;;;;7.60;3.10;;;;;;;;;;5067929;28;20191;-52
2022/06/19 08:45:16;;;;;;;6.63;3.93;;;;;;;;;;5081769;28;20655;-53
2022/06/19 08:47:55;;;;;;;3.97;2.97;;;;;;;;;;5082289;28;20285;-52
2022/06/19 08:50:29;;;;;;;5.70;3.47;;;;;;;;;;5069726;28;20565;-52
2022/06/19 08:53:11;;;;;;;6.13;3.20;;;;;;;;;;5079459;28;20286;-52
2022/06/19 08:55:44;;;;;;;6.33;3.00;;;;;;;;;;5081473;28;20180;-51
2022/06/19 08:58:22;;;;;;;8.17;3.30;;;;;;;;;;5081039;28;20635;-51
2022/06/19 09:00:52;;;;;;;4.30;2.97;;;;;;;;;;5082841;28;20184;-52
2022/06/19 09:06:22;;;;;;;5.70;2.80;;;;;;;;;;5086974;28;20232;-51
2022/06/19 09:08:55;;;;;;;6.40;3.00;;;;;;;;;;5082834;28;20617;-50
2022/06/19 09:11:33;;;;;;;7.47;3.10;;;;;;;;;;5084296;28;20334;-52
2022/06/19 09:14:18;;;;;;;8.13;3.57;;;;;;;;;;5062345;28;20234;-51
2022/06/19 09:16:45;;;;;;;5.57;3.37;;;;;;;;;;5084094;28;20181;-51
2022/06/19 09:19:16;;;;;;;6.43;2.83;;;;;;;;;;5062868;28;20211;-52
2022/06/19 09:21:51;;;;;;;4.73;2.80;;;;;;;;;;5060562;28;20188;-51
2022/06/19 09:24:36;;;;;;;5.60;3.20;;;;;;;;;;5085007;28;20188;-53
2022/06/19 09:27:03;;;;;;;6.30;3.20;;;;;;;;;;5094250;28;20647;-53
2022/06/19 09:29:35;;;;;;;6.73;3.30;;;;;;;;;;5081699;28;20210;-54
2022/06/19 09:32:06;;;;;;;5.60;3.03;;;;;;;;;;5068858;28;20180;-53
2022/06/19 09:34:41;;;;;;;5.50;3.07;;;;;;;;;;5068877;28;20215;-54
2022/06/19 09:37:43;;;;;;;7.97;3.90;;;;;;;;;;5067363;28;20202;-55
2022/06/19 09:40:09;;;;;;;7.50;3.20;;;;;;;;;;5018932;28;20561;-55
2022/06/19 09:42:38;;;;;;;6.07;3.00;;;;;;;;;;5074696;28;20264;-55
2022/06/19 09:45:17;;;;;;;7.27;3.90;;;;;;;;;;5065925;28;20269;-55
2022/06/19 09:47:46;;;;;;;10.43;3.80;;;;;;;;;;5068235;28;20209;-55
2022/06/19 09:50:39;;;;;;;5.70;3.30;;;;;;;;;;5066838;28;20612;-54
2022/06/19 09:53:08;;;;;;;5.73;2.90;;;;;;;;;;5039878;28;20434;-54
2022/06/19 09:55:40;;;;;;;7.60;3.50;;;;;;;;;;5067659;28;20271;-54
2022/06/19 09:58:25;;;;;;;9.60;3.43;;;;;;;;;;5066284;28;20714;-55
2022/06/19 10:00:55;;;;;;;4.83;2.93;;;;;;;;;;5063493;28;20633;-55
2022/06/19 10:03:40;;;;;;;7.27;3.10;;;;;;;;;;5064840;28;20203;-53
2022/06/19 10:06:12;;;;;;;10.63;3.17;;;;;;;;;;5077381;28;21380;-54
2022/06/19 10:08:49;;;;;;;7.13;2.93;;;;;;;;;;5080177;28;20683;-54
2022/06/19 10:11:35;;;;;;;6.43;3.17;;;;;;;;;;5061553;28;20183;-54
2022/06/19 10:14:14;;;;;;;6.30;3.13;;;;;;;;;;5061906;28;20212;-55
2022/06/19 10:16:44;;;;;;;5.17;2.93;;;;;;;;;;5063289;28;20214;-55
2022/06/19 10:19:34;;;;;;;7.53;3.67;;;;;;;;;;5061690;28;20283;-55
2022/06/19 10:22:15;;;;;;;3.80;3.00;;;;;;;;;;5086806;27;20286;-52
2022/06/19 10:24:59;;;;;;;5.83;2.57;;;;;;;;;;5103143;27;20251;-53
2022/06/19 10:27:42;;;;;;;9.97;3.67;;;;;;;;;;5084922;28;20641;-53
2022/06/19 10:30:18;;;;;;;6.03;2.97;;;;;;;;;;5100796;28;20198;-55
2022/06/19 10:32:54;;;;;;;8.20;3.10;;;;;;;;;;5081527;28;20266;-55
2022/06/19 10:35:37;;;;;;;4.03;2.70;;;;;;;;;;5100403;27;20183;-54
2022/06/19 10:38:03;;;;;;;7.40;3.73;;;;;;;;;;5103389;27;20168;-53
2022/06/19 10:40:38;;;;;;;6.33;2.80;;;;;;;;;;5104662;28;20212;-55
2022/06/19 10:43:05;;;;;;;5.40;2.97;;;;;;;;;;5100362;28;20190;-55
2022/06/19 10:45:43;;;;;;;6.20;3.83;;;;;;;;;;5079898;28;20539;-55
2022/06/19 10:48:18;;;;;;;5.50;3.40;;;;;;;;;;5103604;27;20613;-55
2022/06/19 10:50:49;;;;;;;5.97;2.80;;;;;;;;;;5102657;27;20652;-54
2022/06/19 10:53:24;;;;;;;6.53;2.77;;;;;;;;;;5102688;27;20451;-55
2022/06/19 10:56:13;;;;;;;4.30;2.80;;;;;;;;;;5098101;27;20178;-54
2022/06/19 10:58:40;;;;;;;7.60;3.60;;;;;;;;;;5083498;28;20172;-54
2022/06/19 11:01:08;;;;;;;7.43;3.50;;;;;;;;;;5084879;28;20179;-54
2022/06/19 11:06:21;;;;;;;10.50;3.37;;;;;;;;;;5099128;28;21028;-55
2022/06/19 11:08:50;;;;;;;4.93;3.07;;;;;;;;;;5082935;28;20266;-53
2022/06/19 11:11:18;;;;;;;6.67;3.40;;;;;;;;;;5079391;28;20252;-53
2022/06/19 11:14:14;;;;;;;6.37;3.23;;;;;;;;;;5081662;28;20211;-53
2022/06/19 11:16:59;;;;;;;4.53;2.50;;;;;;;;;;5067467;28;20944;-55
2022/06/19 11:19:34;;;;;;;7.00;3.77;;;;;;;;;;5086984;28;20211;-54
2022/06/19 11:22:01;;;;;;;7.97;3.50;;;;;;;;;;5087107;28;20266;-58
2022/06/19 11:24:29;;;;;;;9.37;3.67;;;;;;;;;;5102506;27;20831;-54
2022/06/19 11:26:56;;;;;;;9.23;3.30;;;;;;;;;;5106421;28;20201;-54
2022/06/19 11:29:24;;;;;;;7.03;3.20;;;;;;;;;;5104016;28;20513;-54
2022/06/19 11:32:09;;;;;;;4.43;3.00;;;;;;;;;;5084250;28;20206;-55
2022/06/19 11:34:43;;;;;;;5.33;3.20;;;;;;;;;;5101623;28;20649;-54
2022/06/19 11:37:15;;;;;;;5.30;2.50;;;;;;;;;;5076728;28;20606;-55
2022/06/19 11:39:43;;;;;;;8.10;3.60;;;;;;;;;;5082721;28;20422;-53
2022/06/19 11:42:20;;;;;;;6.27;3.00;;;;;;;;;;5098321;28;20236;-54
2022/06/19 11:44:54;;;;;;;6.27;3.30;;;;;;;;;;5098258;28;20190;-51
2022/06/19 11:47:40;;;;;;;8.67;3.70;;;;;;;;;;5086319;28;20179;-51
2022/06/19 11:50:10;;;;;;;8.20;3.07;;;;;;;;;;5082173;28;20264;-54
2022/06/19 11:52:37;;;;;;;6.23;3.60;;;;;;;;;;5086258;28;20215;-53
2022/06/19 11:55:03;;;;;;;6.07;2.90;;;;;;;;;;5080172;28;20202;-53
2022/06/19 11:57:31;;;;;;;11.27;5.20;;;;;;;;;;5079165;28;20175;-55
2022/06/19 12:00:03;;;;;;;11.27;4.57;;;;;;;;;;5101089;28;20179;-55
2022/06/19 12:02:35;;;;;;;10.03;4.13;;;;;;;;;;5084585;28;20190;-57
2022/06/19 12:05:06;;;;;;;9.43;3.77;;;;;;;;;;5082922;28;20620;-56
2022/06/19 12:07:35;;;;;;;9.87;3.90;;;;;;;;;;5102595;28;21184;-56
2022/06/19 12:10:05;;;;;;;18.20;4.77;;;;;;;;;;5084958;28;20179;-55
2022/06/19 12:12:32;;;;;;;7.60;3.67;;;;;;;;;;5102598;28;20172;-56
2022/06/19 12:15:13;;;;;;;8.97;5.20;;;;;;;;;;5084017;28;20274;-56
2022/06/19 12:17:41;;;;;;;11.93;5.93;;;;;;;;;;5100848;28;20183;-57
2022/06/19 12:20:07;;;;;;;10.73;5.23;;;;;;;;;;5103627;28;20202;-55
2022/06/19 12:22:39;;;;;;;9.47;4.30;;;;;;;;;;5100307;28;20247;-53
2022/06/19 12:25:24;;;;;;;8.23;4.73;;;;;;;;;;5078753;28;20302;-54
2022/06/19 12:28:02;;;;;;;6.47;4.00;;;;;;;;;;5076853;28;20191;-54
2022/06/19 12:30:35;;;;;;;9.40;5.00;;;;;;;;;;5078964;28;20645;-57
2022/06/19 12:33:03;;;;;;;10.37;4.40;;;;;;;;;;5082403;28;20208;-55
2022/06/19 12:35:34;;;;;;;7.23;3.57;;;;;;;;;;5080521;28;20262;-56
2022/06/19 12:38:00;;;;;;;8.10;4.30;;;;;;;;;;5098589;28;20725;-54
2022/06/19 12:40:31;;;;;;;7.53;3.70;;;;;;;;;;5081934;28;20685;-55
2022/06/19 12:43:03;;;;;;;8.17;4.13;;;;;;;;;;5081152;28;20237;-56
2022/06/19 12:45:50;;;;;;;10.17;4.57;;;;;;;;;;5079230;28;20235;-55
2022/06/19 12:48:19;;;;;;;9.60;3.83;;;;;;;;;;5096409;28;20187;-56
2022/06/19 12:50:54;;;;;;;10.80;3.97;;;;;;;;;;5077552;28;20203;-56
2022/06/19 12:53:33;;;;;;;7.83;3.70;;;;;;;;;;5083074;28;20236;-56
2022/06/19 12:56:05;;;;;;;7.67;3.87;;;;;;;;;;5081125;28;20797;-58
2022/06/19 12:58:39;;;;;;;8.77;3.80;;;;;;;;;;5082509;28;20180;-56
2022/06/19 13:01:24;;;;;;;8.23;3.43;;;;;;;;;;5086001;28;20261;-55
2022/06/19 13:04:05;;;;;;;9.03;4.03;;;;;;;;;;5096023;27;20234;-54
2022/06/19 13:06:31;;;;;;;6.90;3.67;;;;;;;;;;5097388;27;20216;-56
2022/06/19 13:09:04;;;;;;;8.70;3.67;;;;;;;;;;5100843;27;20183;-56
2022/06/19 13:11:48;;;;;;;10.00;4.63;;;;;;;;;;5084620;28;20619;-55
2022/06/19 13:14:34;;;;;;;6.83;4.00;;;;;;;;;;5078285;28;20581;-56
2022/06/19 13:17:26;;;;;;;11.50;5.20;;;;;;;;;;5095329;27;20174;-57
2022/06/19 13:19:58;;;;;;;9.77;5.13;;;;;;;;;;5102048;27;20175;-56
2022/06/19 13:22:43;;;;;;;8.53;4.53;;;;;;;;;;5082832;28;20188;-55
2022/06/19 13:25:16;;;;;;;21.23;11.47;;;;;;;;;;5104387;27;20499;-55
2022/06/19 13:28:01;;;;;;;8.47;5.60;;;;;;;;;;5101474;28;20189;-53
2022/06/19 13:30:30;;;;;;;8.80;4.70;;;;;;;;;;5107602;27;20745;-57
2022/06/19 13:33:05;;;;;;;8.13;4.20;;;;;;;;;;5085880;28;20233;-55
2022/06/19 13:35:36;;;;;;;8.90;6.87;;;;;;;;;;5104555;28;20210;-55
2022/06/19 13:38:14;;;;;;;9.13;4.47;;;;;;;;;;5085203;28;20569;-55
2022/06/19 13:40:51;;;;;;;6.47;3.70;;;;;;;;;;5084621;28;20285;-53
2022/06/19 13:43:43;;;;;;;9.60;4.73;;;;;;;;;;5083047;28;20184;-55
2022/06/19 13:46:12;;;;;;;8.53;4.30;;;;;;;;;;5103247;28;20190;-55
2022/06/19 13:48:41;;;;;;;5.87;3.70;;;;;;;;;;5081090;28;20862;-55
2022/06/19 13:51:14;;;;;;;7.97;4.07;;;;;;;;;;5085091;27;20210;-53
2022/06/19 13:53:47;;;;;;;5.93;3.70;;;;;;;;;;5101191;27;20205;-57
2022/06/19 13:56:25;;;;;;;10.00;4.40;;;;;;;;;;5080955;28;20183;-56
2022/06/19 13:58:57;;;;;;;9.03;4.40;;;;;;;;;;5068375;27;20182;-56
2022/06/19 14:01:34;;;;;;;8.60;4.23;;;;;;;;;;5083948;28;20504;-56
2022/06/19 14:07:09;;;;;;;7.93;3.50;;;;;;;;;;5105501;27;20560;-55
2022/06/19 14:09:47;;;;;;;8.20;3.73;;;;;;;;;;5107205;28;20589;-56
2022/06/19 14:12:15;;;;;;;6.37;4.03;;;;;;;;;;5083467;28;20716;-55
2022/06/19 14:14:49;;;;;;;9.37;3.83;;;;;;;;;;5086798;28;20215;-57
2022/06/19 14:17:21;;;;;;;11.57;4.30;;;;;;;;;;5086617;28;20693;-56
2022/06/19 14:19:52;;;;;;;9.33;3.27;;;;;;;;;;5102303;27;20188;-58
2022/06/19 14:22:37;;;;;;;7.67;5.17;;;;;;;;;;5104685;28;20236;-55
2022/06/19 14:25:10;;;;;;;5.87;3.83;;;;;;;;;;5099777;27;20181;-57
2022/06/19 14:27:36;;;;;;;7.97;4.33;;;;;;;;;;5085798;28;20201;-57
2022/06/19 14:30:10;;;;;;;5.77;3.63;;;;;;;;;;5102131;28;20236;-56
2022/06/19 14:32:48;;;;;;;6.80;3.33;;;;;;;;;;5081426;28;20183;-55
2022/06/19 14:35:20;;;;;;;7.27;3.57;;;;;;;;;;5105806;28;20591;-57
2022/06/19 14:38:09;;;;;;;8.57;4.17;;;;;;;;;;5081771;27;20187;-55
2022/06/19 14:40:41;;;;;;;8.93;5.33;;;;;;;;;;5090104;28;20709;-56
2022/06/19 14:43:10;;;;;;;12.87;5.23;;;;;;;;;;5101343;28;20217;-57
2022/06/19 14:45:56;;;;;;;6.20;4.83;;;;;;;;;;5104655;28;20542;-57
2022/06/19 14:48:37;;;;;;;9.83;3.93;;;;;;;;;;5096785;28;20250;-54
2022/06/19 14:51:22;;;;;;;9.93;3.90;;;;;;;;;;5097518;27;20200;-57
2022/06/19 14:54:14;;;;;;;12.63;4.33;;;;;;;;;;5098922;28;20808;-57
2022/06/19 14:56:58;;;;;;;7.20;3.50;;;;;;;;;;5105766;27;20578;-56
2022/06/19 14:59:31;;;;;;;6.50;3.50;;;;;;;;;;5099776;28;20218;-55
2022/06/19 15:01:57;;;;;;;5.43;3.33;;;;;;;;;;5105560;28;20183;-56
2022/06/19 15:04:33;;;;;;;4.90;2.43;;;;;;;;;;5087623;28;20186;-56
2022/06/19 15:06:59;;;;;;;6.83;2.93;;;;;;;;;;5079767;28;20230;-57
2022/06/19 15:09:27;;;;;;;5.17;2.83;;;;;;;;;;5072152;28;20268;-56
2022/06/19 15:11:54;;;;;;;4.40;2.50;;;;;;;;;;5059790;28;20198;-56
2022/06/19 15:14:26;;;;;;;6.80;2.83;;;;;;;;;;5064119;28;20211;-56
2022/06/19 15:16:57;;;;;;;5.73;2.47;;;;;;;;;;5041934;28;20643;-58
2022/06/19 15:19:40;;;;;;;5.23;2.63;;;;;;;;;;5059704;28;20205;-58